createdAt,value
2016-08-10T00:00:14.587Z,1013.94
2016-08-10T00:01:14.614Z,1013.94
2016-08-10T00:02:14.638Z,1013.97
2016-08-10T00:03:14.664Z,1013.9
2016-08-10T00:04:14.689Z,1013.92
2016-08-10T00:06:14.740Z,1013.92
2016-08-10T00:07:14.764Z,1013.93
2016-08-10T00:08:14.789Z,1013.96
2016-08-10T00:09:14.817Z,1013.98
2016-08-10T00:10:14.841Z,1013.98
2016-08-10T00:11:14.864Z,1013.95
2016-08-10T00:12:14.886Z,1013.99
2016-08-10T00:13:14.912Z,1014.02
2016-08-10T00:14:14.945Z,1013.98
2016-08-10T00:15:14.961Z,1013.96
2016-08-10T00:16:14.986Z,1014.01
2016-08-10T00:17:15.011Z,1013.97
2016-08-10T00:18:15.038Z,1013.99
2016-08-10T00:19:15.063Z,1013.97
2016-08-10T00:20:15.088Z,1013.96
2016-08-10T00:21:15.113Z,1013.91
2016-08-10T00:22:15.135Z,1013.9
2016-08-10T00:23:15.162Z,1013.89
2016-08-10T00:24:15.184Z,1013.88
2016-08-10T00:25:15.210Z,1013.87
2016-08-10T00:26:15.233Z,1013.86
2016-08-10T00:27:15.308Z,1013.88
2016-08-10T00:28:15.284Z,1013.84
2016-08-10T00:29:15.309Z,1013.86
2016-08-10T00:30:15.332Z,1013.86
2016-08-10T00:31:15.359Z,1013.85
2016-08-10T00:32:15.382Z,1013.9
2016-08-10T00:33:15.408Z,1013.92
2016-08-10T00:34:15.430Z,1013.93
2016-08-10T00:35:15.458Z,1013.93
2016-08-10T00:36:15.485Z,1014
2016-08-10T00:38:15.532Z,1013.95
2016-08-10T00:39:15.557Z,1013.96
2016-08-10T00:40:15.580Z,1013.94
2016-08-10T00:41:15.606Z,1013.96
2016-08-10T00:42:15.628Z,1013.9
2016-08-10T00:43:15.654Z,1013.92
2016-08-10T00:44:15.677Z,1013.87
2016-08-10T00:45:15.704Z,1013.91
2016-08-10T00:46:15.727Z,1013.87
2016-08-10T00:47:15.751Z,1013.84
2016-08-10T00:48:15.779Z,1013.86
2016-08-10T00:49:15.801Z,1013.86
2016-08-10T00:50:15.827Z,1013.85
2016-08-10T00:51:15.849Z,1013.83
2016-08-10T00:52:15.877Z,1013.83
2016-08-10T00:54:15.931Z,1013.82
2016-08-10T00:55:15.948Z,1013.81
2016-08-10T00:56:15.973Z,1013.81
2016-08-10T00:57:16.001Z,1013.79
2016-08-10T00:58:16.026Z,1013.8
2016-08-10T00:59:16.050Z,1013.82
2016-08-10T01:00:16.072Z,1013.8
2016-08-10T01:01:16.099Z,1013.79
2016-08-10T01:02:16.124Z,1013.72
2016-08-10T01:03:16.146Z,1013.75
2016-08-10T01:04:16.173Z,1013.74
2016-08-10T01:05:16.196Z,1013.73
2016-08-10T01:06:16.222Z,1013.73
2016-08-10T01:07:16.246Z,1013.74
2016-08-10T01:08:16.272Z,1013.73
2016-08-10T01:10:16.321Z,1013.76
2016-08-10T01:11:16.342Z,1013.79
2016-08-10T01:12:16.368Z,1013.78
2016-08-10T01:13:16.393Z,1013.8
2016-08-10T01:14:16.419Z,1013.77
2016-08-10T01:15:16.445Z,1013.78
2016-08-10T01:16:16.468Z,1013.78
2016-08-10T01:17:16.492Z,1013.78
2016-08-10T01:18:16.517Z,1013.79
2016-08-10T01:19:16.540Z,1013.82
2016-08-10T01:20:16.565Z,1013.75
2016-08-10T01:21:16.588Z,1013.75
2016-08-10T01:22:16.619Z,1013.75
2016-08-10T01:23:16.640Z,1013.76
2016-08-10T01:24:16.673Z,1013.75
2016-08-10T01:26:16.713Z,1013.76
2016-08-10T01:27:16.736Z,1013.81
2016-08-10T01:28:16.759Z,1013.78
2016-08-10T01:29:16.785Z,1013.8
2016-08-10T01:30:16.810Z,1013.78
2016-08-10T01:31:16.832Z,1013.76
2016-08-10T01:32:16.856Z,1013.75
2016-08-10T01:33:16.883Z,1013.77
2016-08-10T01:34:16.906Z,1013.76
2016-08-10T01:35:16.929Z,1013.77
2016-08-10T01:36:16.956Z,1013.81
2016-08-10T01:37:16.979Z,1013.79
2016-08-10T01:38:17.003Z,1013.75
2016-08-10T01:39:17.032Z,1013.73
2016-08-10T01:41:17.082Z,1013.73
2016-08-10T01:42:17.108Z,1013.73
2016-08-10T01:43:17.126Z,1013.7
2016-08-10T01:44:17.150Z,1013.75
2016-08-10T01:45:17.176Z,1013.76
2016-08-10T01:46:17.201Z,1013.72
2016-08-10T01:47:17.223Z,1013.72
2016-08-10T01:48:17.250Z,1013.71
2016-08-10T01:49:17.280Z,1013.71
2016-08-10T01:50:17.297Z,1013.73
2016-08-10T01:51:17.324Z,1013.7
2016-08-10T01:52:17.349Z,1013.7
2016-08-10T01:53:17.370Z,1013.69
2016-08-10T01:54:17.398Z,1013.71
2016-08-10T01:55:17.423Z,1013.7
2016-08-10T01:56:17.444Z,1013.72
2016-08-10T01:57:17.468Z,1013.68
2016-08-10T01:58:17.492Z,1013.69
2016-08-10T01:59:17.519Z,1013.68
2016-08-10T02:00:17.540Z,1013.68
2016-08-10T02:01:17.567Z,1013.7
2016-08-10T02:02:17.592Z,1013.67
2016-08-10T02:03:17.614Z,1013.69
2016-08-10T02:04:17.638Z,1013.69
2016-08-10T02:05:17.666Z,1013.71
2016-08-10T02:06:17.688Z,1013.69
2016-08-10T02:07:17.711Z,1013.68
2016-08-10T02:08:17.738Z,1013.66
2016-08-10T02:09:17.761Z,1013.67
2016-08-10T02:10:17.788Z,1013.66
2016-08-10T02:11:17.811Z,1013.68
2016-08-10T02:13:17.860Z,1013.66
2016-08-10T02:14:17.885Z,1013.64
2016-08-10T02:15:17.907Z,1013.6
2016-08-10T02:16:17.935Z,1013.57
2016-08-10T02:17:17.956Z,1013.54
2016-08-10T02:18:17.981Z,1013.49
2016-08-10T02:19:18.004Z,1013.48
2016-08-10T02:20:18.030Z,1013.46
2016-08-10T02:21:18.054Z,1013.45
2016-08-10T02:22:18.081Z,1013.46
2016-08-10T02:23:18.100Z,1013.47
2016-08-10T02:24:18.126Z,1013.46
2016-08-10T02:25:18.151Z,1013.44
2016-08-10T02:26:18.177Z,1013.39
2016-08-10T02:27:18.207Z,1013.42
2016-08-10T02:29:18.250Z,1013.42
2016-08-10T02:30:18.271Z,1013.45
2016-08-10T02:31:18.298Z,1013.45
2016-08-10T02:32:18.324Z,1013.46
2016-08-10T02:33:18.345Z,1013.46
2016-08-10T02:34:18.370Z,1013.43
2016-08-10T02:35:18.395Z,1013.4
2016-08-10T02:36:18.418Z,1013.42
2016-08-10T02:37:18.443Z,1013.42
2016-08-10T02:39:18.492Z,1013.42
2016-08-10T02:40:18.515Z,1013.44
2016-08-10T02:41:18.539Z,1013.42
2016-08-10T02:42:18.567Z,1013.41
2016-08-10T02:43:18.690Z,1013.41
2016-08-10T02:45:18.648Z,1013.4
2016-08-10T02:46:18.660Z,1013.4
2016-08-10T02:47:18.688Z,1013.4
2016-08-10T02:48:18.714Z,1013.38
2016-08-10T02:49:18.735Z,1013.37
2016-08-10T02:50:18.758Z,1013.41
2016-08-10T02:51:18.785Z,1013.37
2016-08-10T02:52:18.809Z,1013.39
2016-08-10T02:54:18.855Z,1013.4
2016-08-10T02:55:18.882Z,1013.39
2016-08-10T02:56:18.904Z,1013.39
2016-08-10T02:57:18.929Z,1013.42
2016-08-10T02:58:18.953Z,1013.41
2016-08-10T02:59:18.988Z,1013.43
2016-08-10T03:01:19.027Z,1013.45
2016-08-10T03:02:19.053Z,1013.44
2016-08-10T03:03:19.074Z,1013.45
2016-08-10T03:04:19.100Z,1013.42
2016-08-10T03:05:19.122Z,1013.45
2016-08-10T03:06:19.149Z,1013.42
2016-08-10T03:07:19.172Z,1013.39
2016-08-10T03:09:19.223Z,1013.37
2016-08-10T03:10:19.244Z,1013.34
2016-08-10T03:11:19.271Z,1013.33
2016-08-10T03:12:19.294Z,1013.33
2016-08-10T03:13:19.319Z,1013.32
2016-08-10T03:14:19.345Z,1013.3
2016-08-10T03:16:19.393Z,1013.28
2016-08-10T03:17:19.418Z,1013.26
2016-08-10T03:18:19.440Z,1013.25
2016-08-10T03:19:19.464Z,1013.22
2016-08-10T03:20:19.490Z,1013.24
2016-08-10T03:21:19.511Z,1013.21
2016-08-10T03:22:19.539Z,1013.24
2016-08-10T03:24:19.584Z,1013.24
2016-08-10T03:25:19.612Z,1013.25
2016-08-10T03:26:19.633Z,1013.2
2016-08-10T03:27:19.657Z,1013.24
2016-08-10T03:28:19.683Z,1013.22
2016-08-10T03:29:19.705Z,1013.24
2016-08-10T03:30:19.730Z,1013.27
2016-08-10T03:31:19.754Z,1013.24
2016-08-10T03:32:19.779Z,1013.21
2016-08-10T03:33:19.805Z,1013.23
2016-08-10T03:34:19.828Z,1013.25
2016-08-10T03:35:19.851Z,1013.25
2016-08-10T03:36:19.876Z,1013.25
2016-08-10T03:37:19.901Z,1013.26
2016-08-10T03:39:19.947Z,1013.25
2016-08-10T03:40:19.972Z,1013.28
2016-08-10T03:41:19.998Z,1013.31
2016-08-10T03:42:20.022Z,1013.27
2016-08-10T03:43:20.046Z,1013.27
2016-08-10T03:44:20.121Z,1013.31
2016-08-10T03:45:20.096Z,1013.29
2016-08-10T03:46:20.121Z,1013.31
2016-08-10T03:48:20.167Z,1013.31
2016-08-10T03:49:20.193Z,1013.37
2016-08-10T03:50:20.215Z,1013.4
2016-08-10T03:51:20.237Z,1013.38
2016-08-10T03:52:20.262Z,1013.43
2016-08-10T03:54:20.308Z,1013.42
2016-08-10T03:55:20.335Z,1013.49
2016-08-10T03:56:20.358Z,1013.46
2016-08-10T03:57:20.380Z,1013.47
2016-08-10T03:58:20.408Z,1013.46
2016-08-10T03:59:20.433Z,1013.51
2016-08-10T04:00:20.454Z,1013.5
2016-08-10T04:01:20.477Z,1013.47
2016-08-10T04:02:20.504Z,1013.44
2016-08-10T04:04:20.553Z,1013.49
2016-08-10T04:05:20.576Z,1013.47
2016-08-10T04:06:20.600Z,1013.48
2016-08-10T04:07:20.625Z,1013.49
2016-08-10T04:09:20.671Z,1013.46
2016-08-10T04:10:20.698Z,1013.47
2016-08-10T04:11:20.722Z,1013.46
2016-08-10T04:12:20.746Z,1013.41
2016-08-10T04:13:20.767Z,1013.43
2016-08-10T04:14:20.795Z,1013.48
2016-08-10T04:15:20.824Z,1013.48
2016-08-10T04:16:20.840Z,1013.5
2016-08-10T04:17:20.864Z,1013.49
2016-08-10T04:18:20.891Z,1013.44
2016-08-10T04:20:20.940Z,1013.43
2016-08-10T04:21:20.962Z,1013.45
2016-08-10T04:22:20.988Z,1013.42
2016-08-10T04:23:21.013Z,1013.43
2016-08-10T04:24:21.036Z,1013.4
2016-08-10T04:25:21.058Z,1013.44
2016-08-10T04:26:21.083Z,1013.43
2016-08-10T04:27:21.106Z,1013.45
2016-08-10T04:28:21.131Z,1013.49
2016-08-10T04:29:21.158Z,1013.47
2016-08-10T04:30:21.179Z,1013.45
2016-08-10T04:31:21.206Z,1013.46
2016-08-10T04:32:21.231Z,1013.49
2016-08-10T04:33:21.255Z,1013.46
2016-08-10T04:34:21.276Z,1013.49
2016-08-10T04:36:21.326Z,1013.46
2016-08-10T04:37:21.352Z,1013.43
2016-08-10T04:38:21.375Z,1013.4
2016-08-10T04:39:21.399Z,1013.46
2016-08-10T04:40:21.431Z,1013.42
2016-08-10T04:41:21.456Z,1013.43
2016-08-10T04:42:21.472Z,1013.44
2016-08-10T04:43:21.499Z,1013.47
2016-08-10T04:44:21.573Z,1013.47
2016-08-10T04:45:21.545Z,1013.49
2016-08-10T04:46:21.570Z,1013.46
2016-08-10T04:47:21.602Z,1013.49
2016-08-10T04:48:21.619Z,1013.54
2016-08-10T04:49:21.646Z,1013.58
2016-08-10T04:51:21.695Z,1013.66
2016-08-10T04:52:21.718Z,1013.68
2016-08-10T04:53:21.743Z,1013.7
2016-08-10T04:54:21.768Z,1013.63
2016-08-10T04:55:21.797Z,1013.64
2016-08-10T04:56:21.819Z,1013.64
2016-08-10T04:57:21.844Z,1013.65
2016-08-10T04:58:21.866Z,1013.65
2016-08-10T04:59:21.892Z,1013.69
2016-08-10T05:00:21.916Z,1013.7
2016-08-10T05:01:21.942Z,1013.73
2016-08-10T05:02:21.969Z,1013.73
2016-08-10T05:03:21.990Z,1013.72
2016-08-10T05:04:22.016Z,1013.73
2016-08-10T05:05:22.044Z,1014.05
2016-08-10T05:06:22.065Z,1013.78
2016-08-10T05:07:22.090Z,1013.88
2016-08-10T05:08:22.114Z,1014
2016-08-10T05:09:22.142Z,1014.18
2016-08-10T05:10:22.168Z,1014.19
2016-08-10T05:11:22.194Z,1014.13
2016-08-10T05:12:22.218Z,1014.02
2016-08-10T05:13:22.246Z,1013.92
2016-08-10T05:14:22.269Z,1013.89
2016-08-10T05:15:22.299Z,1013.93
2016-08-10T05:16:22.325Z,1014
2016-08-10T05:17:22.351Z,1014.19
2016-08-10T05:18:22.377Z,1014.19
2016-08-10T05:19:22.406Z,1014.04
2016-08-10T05:20:22.432Z,1014.17
2016-08-10T05:21:22.460Z,1014.25
2016-08-10T05:23:22.512Z,1014.36
2016-08-10T05:24:22.542Z,1014.24
2016-08-10T05:25:22.570Z,1014.08
2016-08-10T05:26:22.596Z,1014.14
2016-08-10T05:27:22.628Z,1014.11
2016-08-10T05:28:22.656Z,1014.15
2016-08-10T05:29:22.682Z,1014.17
2016-08-10T05:30:22.714Z,1014.52
2016-08-10T05:31:22.740Z,1014.39
2016-08-10T05:32:23.039Z,1014.14
2016-08-10T05:33:22.798Z,1014.12
2016-08-10T05:34:22.826Z,1014.31
2016-08-10T05:35:22.859Z,1014.57
2016-08-10T05:36:22.885Z,1014.51
2016-08-10T05:37:22.917Z,1014.61
2016-08-10T05:39:22.977Z,1014.58
2016-08-10T05:40:23.004Z,1014.57
2016-08-10T05:41:23.035Z,1014.57
2016-08-10T05:42:23.236Z,1014.52
2016-08-10T05:43:23.107Z,1014.27
2016-08-10T05:44:23.130Z,1014.28
2016-08-10T05:45:23.209Z,1014.68
2016-08-10T05:46:23.192Z,1014.72
2016-08-10T05:47:23.220Z,1014.36
2016-08-10T05:48:23.253Z,1014.32
2016-08-10T05:49:23.283Z,1014.29
2016-08-10T05:50:23.315Z,1014.28
2016-08-10T05:51:23.346Z,1014.28
2016-08-10T05:52:23.378Z,1014.27
2016-08-10T05:53:23.410Z,1014.35
2016-08-10T05:55:23.471Z,1014.28
2016-08-10T05:56:23.503Z,1014.28
2016-08-10T05:57:23.533Z,1014.22
2016-08-10T05:58:23.561Z,1014.25
2016-08-10T05:59:23.605Z,1014.22
2016-08-10T06:00:23.621Z,1014.22
2016-08-10T06:01:23.653Z,1014.25
2016-08-10T06:02:23.687Z,1014.24
2016-08-10T06:03:23.713Z,1014.31
2016-08-10T06:04:23.740Z,1014.28
2016-08-10T06:05:23.769Z,1014.69
2016-08-10T06:06:23.798Z,1014.73
2016-08-10T06:07:23.832Z,1014.66
2016-08-10T06:08:23.860Z,1014.85
2016-08-10T06:09:23.887Z,1014.6
2016-08-10T06:11:23.951Z,1014.83
2016-08-10T06:12:23.981Z,1014.82
2016-08-10T06:13:24.012Z,1014.94
2016-08-10T06:14:24.044Z,1015.12
2016-08-10T06:15:24.075Z,1015.28
2016-08-10T06:16:24.106Z,1015.25
2016-08-10T06:17:24.138Z,1015.22
2016-08-10T06:18:24.173Z,1015.25
2016-08-10T06:19:24.205Z,1015.24
2016-08-10T06:20:24.237Z,1015.26
2016-08-10T06:21:24.268Z,1015.29
2016-08-10T06:22:24.305Z,1015.29
2016-08-10T06:23:24.339Z,1015.36
2016-08-10T06:24:24.371Z,1014.8
2016-08-10T06:26:24.441Z,1015.48
2016-08-10T06:27:24.473Z,1015.24
2016-08-10T06:28:24.510Z,1015.17
2016-08-10T06:29:24.542Z,1015.08
2016-08-10T06:30:24.579Z,1015.25
2016-08-10T06:31:24.610Z,1015.29
2016-08-10T06:32:24.648Z,1015.15
2016-08-10T06:33:24.683Z,1015.36
2016-08-10T06:34:24.715Z,1015.53
2016-08-10T06:35:24.751Z,1015.55
2016-08-10T06:36:24.783Z,1015.56
2016-08-10T06:37:24.819Z,1015.4
2016-08-10T06:38:24.854Z,1015.18
2016-08-10T06:39:24.890Z,1014.94
2016-08-10T06:40:24.925Z,1014.91
2016-08-10T06:41:24.959Z,1014.88
2016-08-10T06:42:24.991Z,1014.8
2016-08-10T06:43:25.038Z,1014.63
2016-08-10T06:44:25.060Z,1014.5
2016-08-10T06:45:25.096Z,1014.49
2016-08-10T06:46:25.129Z,1014.5
2016-08-10T06:47:25.163Z,1014.5
2016-08-10T06:48:25.197Z,1014.51
2016-08-10T06:49:25.242Z,1014.56
2016-08-10T06:50:25.266Z,1014.62
2016-08-10T06:51:25.300Z,1014.55
2016-08-10T06:52:25.335Z,1014.5
2016-08-10T06:53:25.365Z,1014.47
2016-08-10T06:54:25.399Z,1014.52
2016-08-10T06:55:25.434Z,1014.51
2016-08-10T06:56:25.463Z,1014.46
2016-08-10T06:58:25.526Z,1014.48
2016-08-10T06:59:25.559Z,1014.56
2016-08-10T07:00:25.589Z,1014.64
2016-08-10T07:01:25.622Z,1014.82
2016-08-10T07:02:25.654Z,1014.91
2016-08-10T07:03:25.685Z,1014.86
2016-08-10T07:04:25.719Z,1015.37
2016-08-10T07:05:25.748Z,1015.39
2016-08-10T07:06:25.781Z,1015.39
2016-08-10T07:07:25.814Z,1015.24
2016-08-10T07:08:25.849Z,1014.5
2016-08-10T07:09:25.881Z,1015.23
2016-08-10T07:10:25.914Z,1015.26
2016-08-10T07:11:25.941Z,1014.45
2016-08-10T07:12:25.975Z,1014.5
2016-08-10T07:14:26.043Z,1014.44
2016-08-10T07:15:26.075Z,1014.45
2016-08-10T07:16:26.109Z,1014.47
2016-08-10T07:17:26.139Z,1014.5
2016-08-10T07:18:26.173Z,1014.48
2016-08-10T07:19:26.207Z,1014.69
2016-08-10T07:20:26.238Z,1014.73
2016-08-10T07:21:26.272Z,1014.72
2016-08-10T07:22:26.302Z,1014.85
2016-08-10T07:23:26.336Z,1014.87
2016-08-10T07:25:26.404Z,1014.86
2016-08-10T07:26:26.431Z,1014.76
2016-08-10T07:27:26.466Z,1014.85
2016-08-10T07:28:26.496Z,1014.86
2016-08-10T07:30:26.562Z,1014.87
2016-08-10T07:31:26.595Z,1014.8
2016-08-10T07:32:26.628Z,1014.76
2016-08-10T07:33:26.659Z,1014.79
2016-08-10T07:34:26.690Z,1014.75
2016-08-10T07:35:26.723Z,1014.77
2016-08-10T07:36:26.755Z,1014.88
2016-08-10T07:37:26.787Z,1014.92
2016-08-10T07:38:26.822Z,1014.93
2016-08-10T07:40:26.887Z,1014.52
2016-08-10T07:41:26.924Z,1015.01
2016-08-10T07:42:26.953Z,1014.93
2016-08-10T07:43:26.987Z,1014.39
2016-08-10T07:44:27.017Z,1014.65
2016-08-10T07:46:27.081Z,1014.47
2016-08-10T07:47:27.114Z,1014.53
2016-08-10T07:48:27.147Z,1014.39
2016-08-10T07:49:27.182Z,1014.45
2016-08-10T07:50:27.263Z,1014.48
2016-08-10T07:51:27.247Z,1014.39
2016-08-10T07:52:27.280Z,1014.56
2016-08-10T07:53:27.310Z,1014.72
2016-08-10T07:55:27.376Z,1014.82
2016-08-10T07:56:27.409Z,1014.76
2016-08-10T07:57:27.439Z,1014.71
2016-08-10T07:58:27.472Z,1014.66
2016-08-10T07:59:27.503Z,1014.83
2016-08-10T08:01:27.567Z,1014.88
2016-08-10T08:02:27.598Z,1014.92
2016-08-10T08:03:27.681Z,1014.99
2016-08-10T08:04:27.665Z,1014.97
2016-08-10T08:05:27.696Z,1014.9
2016-08-10T08:06:27.729Z,1014.73
2016-08-10T08:07:27.762Z,1014.87
2016-08-10T08:08:27.798Z,1014.83
2016-08-10T08:10:27.863Z,1014.72
2016-08-10T08:11:27.944Z,1014.7
2016-08-10T08:12:27.930Z,1014.64
2016-08-10T08:13:27.962Z,1014.58
2016-08-10T08:14:27.994Z,1014.6
2016-08-10T08:15:28.030Z,1014.68
2016-08-10T08:16:28.061Z,1014.64
2016-08-10T08:17:28.094Z,1014.77
2016-08-10T08:18:28.127Z,1014.69
2016-08-10T08:19:28.160Z,1014.62
2016-08-10T08:20:28.192Z,1014.66
2016-08-10T08:21:28.226Z,1014.63
2016-08-10T08:22:28.260Z,1014.64
2016-08-10T08:23:28.293Z,1014.58
2016-08-10T08:25:28.357Z,1014.56
2016-08-10T08:26:28.391Z,1014.51
2016-08-10T08:27:28.424Z,1014.77
2016-08-10T08:28:28.456Z,1014.78
2016-08-10T08:29:28.490Z,1014.71
2016-08-10T08:30:28.522Z,1014.52
2016-08-10T08:31:28.555Z,1014.23
2016-08-10T08:33:28.622Z,1014.22
2016-08-10T08:34:28.654Z,1014.22
2016-08-10T08:35:28.689Z,1014.2
2016-08-10T08:36:28.723Z,1014.14
2016-08-10T08:37:28.753Z,1014.22
2016-08-10T08:38:28.787Z,1014.14
2016-08-10T08:40:28.852Z,1014.21
2016-08-10T08:41:28.885Z,1014.19
2016-08-10T08:42:28.913Z,1014.27
2016-08-10T08:43:28.946Z,1014.17
2016-08-10T08:44:28.978Z,1014.31
2016-08-10T08:45:29.010Z,1014.35
2016-08-10T08:46:29.041Z,1014.36
2016-08-10T08:47:29.075Z,1014.29
2016-08-10T08:49:29.140Z,1014.15
2016-08-10T08:50:29.170Z,1014.22
2016-08-10T08:51:29.202Z,1014.09
2016-08-10T08:52:29.283Z,1014.06
2016-08-10T08:53:29.264Z,1014.09
2016-08-10T08:55:29.329Z,1014.26
2016-08-10T08:56:29.358Z,1014.32
2016-08-10T08:57:29.391Z,1014.3
2016-08-10T08:58:29.422Z,1014.13
2016-08-10T08:59:29.453Z,1014.09
2016-08-10T09:00:29.496Z,1014.14
2016-08-10T09:01:29.517Z,1014.15
2016-08-10T09:02:29.549Z,1014.15
2016-08-10T09:03:29.632Z,1014.05
2016-08-10T09:05:29.649Z,1014.09
2016-08-10T09:06:29.681Z,1014.06
2016-08-10T09:07:29.713Z,1014.03
2016-08-10T09:08:29.744Z,1014.05
2016-08-10T09:10:29.808Z,1014
2016-08-10T09:11:29.841Z,1013.98
2016-08-10T09:12:29.871Z,1014.03
2016-08-10T09:13:29.905Z,1014.03
2016-08-10T09:14:29.935Z,1014.05
2016-08-10T09:15:29.966Z,1013.98
2016-08-10T09:16:29.998Z,1013.98
2016-08-10T09:17:30.030Z,1013.93
2016-08-10T09:18:30.063Z,1013.94
2016-08-10T09:19:30.095Z,1013.9
2016-08-10T09:21:30.158Z,1013.96
2016-08-10T09:22:30.190Z,1013.96
2016-08-10T09:23:30.218Z,1013.95
2016-08-10T09:25:30.282Z,1013.88
2016-08-10T09:26:30.311Z,1013.92
2016-08-10T09:27:30.345Z,1013.98
2016-08-10T09:28:30.379Z,1013.89
2016-08-10T09:29:30.406Z,1013.78
2016-08-10T09:30:30.438Z,1013.92
2016-08-10T09:31:30.469Z,1013.9
2016-08-10T09:32:30.500Z,1013.88
2016-08-10T09:33:30.533Z,1013.89
2016-08-10T09:34:30.564Z,1013.88
2016-08-10T09:36:30.628Z,1013.82
2016-08-10T09:37:30.656Z,1013.81
2016-08-10T09:38:30.688Z,1013.84
2016-08-10T09:39:30.719Z,1013.86
2016-08-10T09:40:30.754Z,1013.87
2016-08-10T09:41:30.782Z,1013.86
2016-08-10T09:42:30.813Z,1013.86
2016-08-10T09:43:30.845Z,1013.83
2016-08-10T09:44:30.874Z,1013.82
2016-08-10T09:45:30.906Z,1013.85
2016-08-10T09:46:30.937Z,1013.85
2016-08-10T09:47:30.967Z,1013.85
2016-08-10T09:48:30.997Z,1013.82
2016-08-10T09:49:31.030Z,1013.77
2016-08-10T09:50:31.060Z,1013.76
2016-08-10T09:51:31.093Z,1013.77
2016-08-10T09:52:31.123Z,1013.76
2016-08-10T09:53:31.153Z,1013.77
2016-08-10T09:54:31.183Z,1013.72
2016-08-10T09:55:31.213Z,1013.67
2016-08-10T09:56:31.245Z,1013.7
2016-08-10T09:57:31.276Z,1013.73
2016-08-10T09:58:31.301Z,1013.69
2016-08-10T09:59:31.731Z,1013.66
2016-08-10T10:00:31.361Z,1013.66
2016-08-10T10:01:31.391Z,1013.64
2016-08-10T10:02:31.422Z,1013.64
2016-08-10T10:03:31.449Z,1013.65
2016-08-10T10:04:31.479Z,1013.58
2016-08-10T10:05:31.511Z,1013.61
2016-08-10T10:06:31.539Z,1013.56
2016-08-10T10:08:31.600Z,1013.56
2016-08-10T10:09:31.627Z,1013.55
2016-08-10T10:10:31.655Z,1013.6
2016-08-10T10:11:31.687Z,1013.58
2016-08-10T10:12:31.715Z,1013.47
2016-08-10T10:13:31.745Z,1013.55
2016-08-10T10:14:31.776Z,1013.59
2016-08-10T10:15:31.804Z,1013.56
2016-08-10T10:16:31.833Z,1013.52
2016-08-10T10:17:31.863Z,1013.5
2016-08-10T10:18:31.895Z,1013.46
2016-08-10T10:19:31.925Z,1013.46
2016-08-10T10:20:31.953Z,1013.46
2016-08-10T10:21:31.982Z,1013.46
2016-08-10T10:22:32.014Z,1013.51
2016-08-10T10:24:32.072Z,1013.51
2016-08-10T10:25:32.104Z,1013.54
2016-08-10T10:26:32.134Z,1013.5
2016-08-10T10:27:32.161Z,1013.52
2016-08-10T10:28:32.192Z,1013.51
2016-08-10T10:29:32.223Z,1013.5
2016-08-10T10:30:32.254Z,1013.5
2016-08-10T10:31:32.285Z,1013.53
2016-08-10T10:32:32.314Z,1013.52
2016-08-10T10:33:32.344Z,1013.44
2016-08-10T10:34:32.374Z,1013.5
2016-08-10T10:35:32.403Z,1013.45
2016-08-10T10:36:32.433Z,1013.49
2016-08-10T10:37:32.463Z,1013.45
2016-08-10T10:38:32.645Z,1013.51
2016-08-10T10:40:32.568Z,1013.44
2016-08-10T10:41:32.587Z,1013.44
2016-08-10T10:42:32.617Z,1013.39
2016-08-10T10:43:32.646Z,1013.42
2016-08-10T10:44:32.677Z,1013.46
2016-08-10T10:45:32.710Z,1013.41
2016-08-10T10:46:32.738Z,1013.37
2016-08-10T10:47:32.770Z,1013.36
2016-08-10T10:48:32.800Z,1013.39
2016-08-10T10:49:32.828Z,1013.41
2016-08-10T10:50:32.863Z,1013.41
2016-08-10T10:51:32.887Z,1013.37
2016-08-10T10:52:32.920Z,1013.44
2016-08-10T10:53:32.948Z,1013.37
2016-08-10T10:54:32.978Z,1013.36
2016-08-10T10:56:33.036Z,1013.31
2016-08-10T10:57:33.067Z,1013.34
2016-08-10T10:58:33.095Z,1013.34
2016-08-10T10:59:33.126Z,1013.33
2016-08-10T11:00:33.153Z,1013.36
2016-08-10T11:01:33.181Z,1013.41
2016-08-10T11:02:33.263Z,1013.46
2016-08-10T11:03:33.240Z,1013.4
2016-08-10T11:04:33.270Z,1013.37
2016-08-10T11:05:33.299Z,1013.38
2016-08-10T11:06:33.326Z,1013.38
2016-08-10T11:07:33.357Z,1013.44
2016-08-10T11:08:33.386Z,1013.44
2016-08-10T11:09:33.415Z,1013.38
2016-08-10T11:11:33.474Z,1013.37
2016-08-10T11:12:33.501Z,1013.32
2016-08-10T11:13:33.530Z,1013.34
2016-08-10T11:14:33.560Z,1013.31
2016-08-10T11:15:33.589Z,1013.38
2016-08-10T11:16:33.625Z,1013.37
2016-08-10T11:17:33.643Z,1013.37
2016-08-10T11:18:33.677Z,1013.34
2016-08-10T11:19:33.703Z,1013.36
2016-08-10T11:20:33.731Z,1013.32
2016-08-10T11:21:33.758Z,1013.34
2016-08-10T11:22:33.788Z,1013.33
2016-08-10T11:23:33.817Z,1013.29
2016-08-10T11:24:33.846Z,1013.32
2016-08-10T11:25:33.873Z,1013.35
2016-08-10T11:26:33.915Z,1013.28
2016-08-10T11:27:33.931Z,1013.27
2016-08-10T11:28:33.958Z,1013.29
2016-08-10T11:29:33.988Z,1013.31
2016-08-10T11:30:34.015Z,1013.4
2016-08-10T11:31:34.044Z,1013.28
2016-08-10T11:32:34.074Z,1013.35
2016-08-10T11:33:34.102Z,1013.36
2016-08-10T11:34:34.129Z,1013.36
2016-08-10T11:35:34.160Z,1013.34
2016-08-10T11:36:34.189Z,1013.37
2016-08-10T11:37:34.216Z,1013.3
2016-08-10T11:38:34.246Z,1013.33
2016-08-10T11:39:34.272Z,1013.35
2016-08-10T11:40:34.301Z,1013.36
2016-08-10T11:41:34.332Z,1013.36
2016-08-10T11:43:34.387Z,1013.39
2016-08-10T11:44:34.415Z,1013.34
2016-08-10T11:45:34.443Z,1013.4
2016-08-10T11:46:34.474Z,1013.32
2016-08-10T11:47:34.501Z,1013.36
2016-08-10T11:48:34.532Z,1013.35
2016-08-10T11:49:34.559Z,1013.33
2016-08-10T11:50:34.587Z,1013.36
2016-08-10T11:51:34.616Z,1013.31
2016-08-10T11:52:34.642Z,1013.33
2016-08-10T11:53:34.671Z,1013.39
2016-08-10T11:54:34.699Z,1013.36
2016-08-10T11:55:34.738Z,1013.42
2016-08-10T11:56:34.758Z,1013.43
2016-08-10T11:57:34.789Z,1013.37
2016-08-10T11:59:34.845Z,1013.36
2016-08-10T12:00:34.875Z,1013.4
2016-08-10T12:01:34.915Z,1013.4
2016-08-10T12:02:34.931Z,1013.4
2016-08-10T12:03:34.960Z,1013.38
2016-08-10T12:04:34.991Z,1013.34
2016-08-10T12:05:35.018Z,1013.37
2016-08-10T12:06:35.050Z,1013.36
2016-08-10T12:07:35.076Z,1013.36
2016-08-10T12:08:35.106Z,1013.33
2016-08-10T12:09:35.136Z,1013.35
2016-08-10T12:10:35.167Z,1013.29
2016-08-10T12:11:35.194Z,1013.34
2016-08-10T12:12:35.220Z,1013.32
2016-08-10T12:13:35.251Z,1013.3
2016-08-10T12:15:35.309Z,1013.27
2016-08-10T12:16:35.336Z,1013.26
2016-08-10T12:17:35.365Z,1013.3
2016-08-10T12:18:35.402Z,1013.3
2016-08-10T12:19:35.474Z,1013.3
2016-08-10T12:20:35.451Z,1013.3
2016-08-10T12:21:35.485Z,1013.3
2016-08-10T12:22:35.510Z,1013.24
2016-08-10T12:23:35.539Z,1013.24
2016-08-10T12:24:35.568Z,1013.28
2016-08-10T12:25:35.598Z,1013.22
2016-08-10T12:26:35.627Z,1013.24
2016-08-10T12:27:35.657Z,1013.18
2016-08-10T12:28:35.683Z,1013.16
2016-08-10T12:29:35.862Z,1013.19
2016-08-10T12:31:35.769Z,1013.17
2016-08-10T12:32:35.799Z,1013.16
2016-08-10T12:33:35.828Z,1013.17
2016-08-10T12:34:35.858Z,1013.15
2016-08-10T12:35:35.883Z,1013.18
2016-08-10T12:36:35.914Z,1013.15
2016-08-10T12:37:35.943Z,1013.15
2016-08-10T12:38:35.970Z,1013.15
2016-08-10T12:39:35.997Z,1013.15
2016-08-10T12:40:36.025Z,1013.14
2016-08-10T12:41:36.053Z,1013.13
2016-08-10T12:42:36.085Z,1013.13
2016-08-10T12:43:36.112Z,1013.16
2016-08-10T12:44:36.139Z,1013.14
2016-08-10T12:46:36.195Z,1013.12
2016-08-10T12:47:36.223Z,1013.07
2016-08-10T12:48:36.253Z,1013.08
2016-08-10T12:49:36.282Z,1013.15
2016-08-10T12:50:36.311Z,1013.1
2016-08-10T12:51:36.338Z,1013.11
2016-08-10T12:52:36.365Z,1013.07
2016-08-10T12:53:36.395Z,1013.03
2016-08-10T12:54:36.423Z,1013.02
2016-08-10T12:55:36.449Z,1013
2016-08-10T12:56:36.480Z,1013
2016-08-10T12:57:36.509Z,1012.99
2016-08-10T12:58:36.536Z,1013.02
2016-08-10T12:59:36.564Z,1013.03
2016-08-10T13:00:36.591Z,1013.03
2016-08-10T13:01:36.622Z,1013.05
2016-08-10T13:02:36.650Z,1013.03
2016-08-10T13:03:36.676Z,1013.06
2016-08-10T13:04:36.705Z,1012.98
2016-08-10T13:05:36.735Z,1012.99